createdAt,value
2016-09-28T00:00:12.344Z,58.90
2016-09-28T00:01:11.427Z,58.80
2016-09-28T00:02:10.366Z,is
2016-09-28T00:03:11.680Z,58.90
2016-09-28T00:04:10.449Z,is
2016-09-28T00:05:12.599Z,58.70
2016-09-28T00:06:11.605Z,58.80
2016-09-28T00:07:11.558Z,58.70
2016-09-28T00:08:12.439Z,58.60
2016-09-28T00:09:09.596Z,is
2016-09-28T00:10:12.178Z,58.80
2016-09-28T00:11:10.277Z,is
2016-09-28T00:12:11.678Z,58.90
2016-09-28T00:13:12.618Z,58.90
2016-09-28T00:14:11.667Z,58.90
2016-09-28T00:15:13.289Z,59.00
2016-09-28T00:16:12.529Z,58.90
2016-09-28T00:17:13.262Z,59.00
2016-09-28T00:18:12.275Z,58.80
2016-09-28T00:19:12.989Z,59.00
2016-09-28T00:20:14.812Z,58.90
2016-09-28T00:21:11.840Z,58.90
2016-09-28T00:22:13.546Z,58.90
2016-09-28T00:23:11.438Z,58.90
2016-09-28T00:24:12.057Z,58.90
2016-09-28T00:25:12.090Z,58.90
2016-09-28T00:26:12.881Z,59.00
2016-09-28T00:27:12.417Z,59.00
2016-09-28T00:28:11.432Z,58.90
2016-09-28T00:29:11.428Z,58.80
2016-09-28T00:30:11.538Z,58.80
2016-09-28T00:31:12.322Z,59.00
2016-09-28T00:32:12.836Z,59.00
2016-09-28T00:33:11.848Z,58.90
2016-09-28T00:34:12.317Z,58.90
2016-09-28T00:35:13.045Z,59.00
2016-09-28T00:36:11.989Z,58.80
2016-09-28T00:37:11.988Z,58.80
2016-09-28T00:38:11.996Z,58.90
2016-09-28T00:39:12.547Z,59.00
2016-09-28T00:40:12.650Z,58.90
2016-09-28T00:41:12.357Z,58.80
2016-09-28T00:42:12.476Z,59.20
2016-09-28T00:43:11.587Z,58.90
2016-09-28T00:44:11.507Z,58.90
2016-09-28T00:45:11.439Z,58.80
2016-09-28T00:46:11.347Z,58.90
2016-09-28T00:47:11.347Z,58.90
2016-09-28T00:48:12.273Z,58.90
2016-09-28T00:49:13.915Z,59.00
2016-09-28T00:50:10.000Z,is
2016-09-28T00:51:10.804Z,is
2016-09-28T00:52:12.726Z,58.90
2016-09-28T00:53:10.206Z,is
2016-09-28T00:54:12.227Z,59.00
2016-09-28T00:55:14.625Z,58.80
2016-09-28T00:56:11.698Z,58.90
2016-09-28T00:57:11.667Z,58.90
2016-09-28T00:58:12.427Z,59.00
2016-09-28T00:59:11.925Z,58.90
2016-09-28T01:00:13.573Z,59.00
2016-09-28T01:01:13.027Z,58.90
2016-09-28T01:02:12.493Z,58.90
2016-09-28T01:03:15.596Z,58.90
2016-09-28T01:04:11.772Z,58.80
2016-09-28T01:05:11.756Z,58.80
2016-09-28T01:06:14.293Z,58.90
2016-09-28T01:07:12.804Z,58.90
2016-09-28T01:08:12.096Z,58.90
2016-09-28T01:09:14.694Z,58.90
2016-09-28T01:10:12.466Z,58.90
2016-09-28T01:11:12.287Z,58.90
2016-09-28T01:12:12.834Z,58.90
2016-09-28T01:13:11.902Z,58.90
2016-09-28T01:14:12.788Z,58.90
2016-09-28T01:15:14.350Z,58.80
2016-09-28T01:16:13.663Z,58.90
2016-09-28T01:17:13.430Z,58.90
2016-09-28T01:18:13.915Z,58.90
2016-09-28T01:19:11.504Z,58.90
2016-09-28T01:20:14.813Z,58.90
2016-09-28T01:21:11.844Z,58.90
2016-09-28T01:22:14.021Z,58.80
2016-09-28T01:23:12.837Z,58.80
2016-09-28T01:24:12.560Z,58.80
2016-09-28T01:25:12.975Z,58.90
2016-09-28T01:26:14.335Z,58.90
2016-09-28T01:27:14.782Z,59.00
2016-09-28T01:28:13.045Z,58.90
2016-09-28T01:29:12.099Z,58.90
2016-09-28T01:30:12.046Z,58.80
2016-09-28T01:31:14.873Z,58.90
2016-09-28T01:32:13.567Z,58.90
2016-09-28T01:33:12.341Z,58.90
2016-09-28T01:34:13.212Z,58.90
2016-09-28T01:35:13.010Z,59.00
2016-09-28T01:36:11.996Z,58.90
2016-09-28T01:37:13.332Z,58.80
2016-09-28T01:38:13.696Z,58.90
2016-09-28T01:39:13.629Z,59.00
2016-09-28T01:40:12.117Z,58.90
2016-09-28T01:41:14.024Z,58.90
2016-09-28T01:42:11.964Z,58.90
2016-09-28T01:43:12.052Z,58.90
2016-09-28T01:44:13.609Z,58.90
2016-09-28T01:45:13.983Z,59.00
2016-09-28T01:46:12.578Z,59.00
2016-09-28T01:47:09.646Z,is
2016-09-28T01:48:14.425Z,59.00
2016-09-28T01:49:11.653Z,58.90
2016-09-28T01:50:12.153Z,59.00
2016-09-28T01:51:13.623Z,58.90
2016-09-28T01:52:11.774Z,58.30
2016-09-28T01:53:14.197Z,58.90
2016-09-28T01:54:13.585Z,58.90
2016-09-28T01:55:13.015Z,58.90
2016-09-28T01:56:13.236Z,59.00
2016-09-28T01:57:13.195Z,59.00
2016-09-28T01:58:12.885Z,59.00
2016-09-28T01:59:11.978Z,58.90
2016-09-28T02:00:14.360Z,59.00
2016-09-28T02:01:15.305Z,58.90
2016-09-28T02:02:12.237Z,58.90
2016-09-28T02:03:12.646Z,58.90
2016-09-28T02:04:11.766Z,58.90
2016-09-28T02:05:14.245Z,59.00
2016-09-28T02:06:13.572Z,58.80
2016-09-28T02:07:12.322Z,58.90
2016-09-28T02:08:10.241Z,is
2016-09-28T02:09:11.853Z,58.90
2016-09-28T02:10:13.627Z,59.00
2016-09-28T02:11:09.576Z,is
2016-09-28T02:12:14.458Z,59.00
2016-09-28T02:13:12.074Z,59.00
2016-09-28T02:14:12.071Z,58.90
2016-09-28T02:15:12.591Z,58.90
2016-09-28T02:16:13.476Z,58.90
2016-09-28T02:17:12.233Z,59.00
2016-09-28T02:18:13.290Z,58.90
2016-09-28T02:19:12.313Z,58.90
2016-09-28T02:20:13.683Z,58.90
2016-09-28T02:21:10.703Z,is
2016-09-28T02:22:11.638Z,58.80
2016-09-28T02:23:11.547Z,58.90
2016-09-28T02:24:12.024Z,58.90
2016-09-28T02:25:12.242Z,58.90
2016-09-28T02:26:12.841Z,58.80
2016-09-28T02:27:11.929Z,58.90
2016-09-28T02:28:11.985Z,59.00
2016-09-28T02:29:11.960Z,59.50
2016-09-28T02:30:13.701Z,59.10
2016-09-28T02:31:14.089Z,59.10
2016-09-28T02:32:13.076Z,59.00
2016-09-28T02:33:13.359Z,59.10
2016-09-28T02:34:12.333Z,58.90
2016-09-28T02:35:12.244Z,59.10
2016-09-28T02:36:12.308Z,59.10
2016-09-28T02:37:13.449Z,58.90
2016-09-28T02:38:14.449Z,59.00
2016-09-28T02:39:13.188Z,59.10
2016-09-28T02:40:13.249Z,58.90
2016-09-28T02:41:13.245Z,59.00
2016-09-28T02:42:12.809Z,58.90
2016-09-28T02:43:13.741Z,59.00
2016-09-28T02:44:10.374Z,is
2016-09-28T02:45:09.492Z,is
2016-09-28T02:46:11.932Z,59.00
2016-09-28T02:47:12.015Z,59.10
2016-09-28T02:48:12.182Z,58.90
2016-09-28T02:49:13.316Z,59.20
2016-09-28T02:50:10.481Z,is
2016-09-28T02:51:12.186Z,59.10
2016-09-28T02:52:13.066Z,59.10
2016-09-28T02:53:12.265Z,58.90
2016-09-28T02:54:13.012Z,59.00
2016-09-28T02:55:11.878Z,59.10
2016-09-28T02:56:11.812Z,59.00
2016-09-28T02:57:11.940Z,59.00
2016-09-28T02:58:13.737Z,59.30
2016-09-28T02:59:12.233Z,59.00
2016-09-28T03:00:10.219Z,is
2016-09-28T03:01:11.681Z,59.40
2016-09-28T03:02:12.230Z,59.00
2016-09-28T03:03:10.926Z,is
2016-09-28T03:04:12.218Z,59.20
2016-09-28T03:05:11.374Z,59.30
2016-09-28T03:06:15.278Z,59.50
2016-09-28T03:07:13.123Z,59.40
2016-09-28T03:08:12.739Z,59.40
2016-09-28T03:09:12.250Z,59.40
2016-09-28T03:10:12.895Z,59.50
2016-09-28T03:11:11.895Z,59.30
2016-09-28T03:12:11.906Z,59.40
2016-09-28T03:13:10.293Z,is
2016-09-28T03:14:11.693Z,59.50
2016-09-28T03:15:12.065Z,59.60
2016-09-28T03:16:12.553Z,59.50
2016-09-28T03:17:12.843Z,59.50
2016-09-28T03:18:11.927Z,59.40
2016-09-28T03:19:11.979Z,59.40
2016-09-28T03:20:13.646Z,59.40
2016-09-28T03:21:12.810Z,59.60
2016-09-28T03:22:12.469Z,59.50
2016-09-28T03:23:11.534Z,59.50
2016-09-28T03:24:13.009Z,59.60
2016-09-28T03:25:11.891Z,59.50
2016-09-28T03:26:14.356Z,59.50
2016-09-28T03:27:13.386Z,59.50
2016-09-28T03:28:11.590Z,is
2016-09-28T03:29:12.829Z,59.70
2016-09-28T03:30:12.285Z,59.80
2016-09-28T03:31:11.484Z,59.60
2016-09-28T03:32:11.494Z,59.50
2016-09-28T03:33:12.194Z,59.50
2016-09-28T03:34:13.213Z,59.60
2016-09-28T03:35:11.844Z,59.50
2016-09-28T03:36:12.632Z,59.70
2016-09-28T03:37:12.456Z,59.70
2016-09-28T03:38:12.837Z,59.70
2016-09-28T03:39:11.942Z,59.60
2016-09-28T03:40:12.175Z,59.50
2016-09-28T03:41:13.215Z,59.70
2016-09-28T03:42:13.686Z,59.70
2016-09-28T03:43:12.223Z,59.70
2016-09-28T03:44:13.009Z,59.80
2016-09-28T03:45:13.833Z,59.80
2016-09-28T03:46:13.100Z,59.60
2016-09-28T03:47:12.162Z,59.80
2016-09-28T03:48:12.833Z,59.70
2016-09-28T03:49:12.270Z,59.60
2016-09-28T03:50:10.730Z,is
2016-09-28T03:51:12.433Z,59.60
2016-09-28T03:52:10.177Z,is
2016-09-28T03:53:12.922Z,59.80
2016-09-28T03:54:10.374Z,is
2016-09-28T03:55:12.302Z,59.90
2016-09-28T03:56:13.583Z,59.90
2016-09-28T03:57:13.533Z,60.00
2016-09-28T03:58:11.910Z,59.90
2016-09-28T03:59:12.545Z,59.60
2016-09-28T04:00:12.175Z,59.70
2016-09-28T04:01:12.641Z,59.90
2016-09-28T04:02:09.697Z,is
2016-09-28T04:03:12.590Z,59.80
2016-09-28T04:04:11.771Z,59.70
2016-09-28T04:05:10.273Z,is
2016-09-28T04:06:18.234Z,59.90
2016-09-28T04:07:13.064Z,59.90
2016-09-28T04:08:10.078Z,is
2016-09-28T04:09:12.213Z,60.00
2016-09-28T04:10:12.259Z,60.00
2016-09-28T04:11:11.929Z,60.00
2016-09-28T04:12:11.875Z,59.60
2016-09-28T04:13:12.424Z,59.90
2016-09-28T04:14:17.598Z,59.80
2016-09-28T04:15:12.521Z,60.00
2016-09-28T04:16:11.648Z,59.90
2016-09-28T04:17:13.256Z,59.90
2016-09-28T04:18:14.991Z,59.90
2016-09-28T04:19:12.316Z,59.80
2016-09-28T04:20:12.043Z,59.80
2016-09-28T04:21:12.123Z,59.80
2016-09-28T04:22:12.208Z,59.80
2016-09-28T04:23:12.823Z,59.70
2016-09-28T04:24:13.092Z,59.80
2016-09-28T04:25:14.001Z,is
2016-09-28T04:26:15.878Z,60.00
2016-09-28T04:27:14.021Z,59.90
2016-09-28T04:28:12.083Z,59.90
2016-09-28T04:29:10.745Z,is
2016-09-28T04:30:09.971Z,is
2016-09-28T04:31:13.004Z,60.00
2016-09-28T04:32:12.133Z,60.00
2016-09-28T04:33:13.617Z,60.00
2016-09-28T04:34:11.684Z,59.80
2016-09-28T04:35:12.273Z,59.90
2016-09-28T04:36:10.213Z,is
2016-09-28T04:37:12.855Z,59.70
2016-09-28T04:38:11.810Z,59.80
2016-09-28T04:39:11.802Z,59.80
2016-09-28T04:40:12.249Z,59.80
2016-09-28T04:41:12.642Z,59.80
2016-09-28T04:42:13.519Z,60.10
2016-09-28T04:43:11.591Z,60.00
2016-09-28T04:44:14.296Z,60.00
2016-09-28T04:45:12.944Z,59.90
2016-09-28T04:46:12.434Z,59.90
2016-09-28T04:47:11.575Z,59.80
2016-09-28T04:48:11.522Z,60.00
2016-09-28T04:49:13.296Z,60.00
2016-09-28T04:50:12.249Z,59.90
2016-09-28T04:51:12.153Z,59.90
2016-09-28T04:52:12.036Z,59.90
2016-09-28T04:53:11.990Z,59.80
2016-09-28T04:54:12.461Z,59.90
2016-09-28T04:55:12.119Z,59.80
2016-09-28T04:56:12.134Z,60.00
2016-09-28T04:57:12.199Z,60.00
2016-09-28T04:58:12.224Z,59.90
2016-09-28T04:59:12.166Z,60.00
2016-09-28T05:00:13.294Z,60.00
2016-09-28T05:01:13.225Z,59.90
2016-09-28T05:02:12.852Z,60.00
2016-09-28T05:03:12.832Z,60.10
2016-09-28T05:04:12.583Z,60.00
2016-09-28T05:05:13.289Z,60.00
2016-09-28T05:06:12.850Z,60.00
2016-09-28T05:07:13.560Z,59.80
2016-09-28T05:08:12.187Z,60.00
2016-09-28T05:09:13.852Z,60.00
2016-09-28T05:10:11.733Z,59.90
2016-09-28T05:11:12.731Z,59.90
2016-09-28T05:12:11.972Z,59.70
2016-09-28T05:13:10.692Z,is
2016-09-28T05:14:12.320Z,59.90
2016-09-28T05:15:13.213Z,60.00
2016-09-28T05:16:13.021Z,60.10
2016-09-28T05:17:12.696Z,59.90
2016-09-28T05:18:12.184Z,60.00
2016-09-28T05:19:10.100Z,is
2016-09-28T05:20:12.601Z,59.90
2016-09-28T05:21:09.483Z,is
2016-09-28T05:22:12.661Z,60.00
2016-09-28T05:23:11.779Z,59.70
2016-09-28T05:24:13.285Z,59.70
2016-09-28T05:25:18.416Z,59.60
2016-09-28T05:26:12.842Z,59.70
2016-09-28T05:27:09.177Z,is
2016-09-28T05:28:12.002Z,59.70
2016-09-28T05:29:12.527Z,59.60
2016-09-28T05:30:13.033Z,59.60
2016-09-28T05:31:13.844Z,59.60
2016-09-28T05:32:11.702Z,59.50
2016-09-28T05:33:11.644Z,59.50
2016-09-28T05:34:12.360Z,59.50
2016-09-28T05:35:12.178Z,59.50
2016-09-28T05:36:13.383Z,58.90
2016-09-28T05:37:11.531Z,55.90
2016-09-28T05:38:11.577Z,58.10
2016-09-28T05:39:12.190Z,59.80
2016-09-28T05:40:10.258Z,is
2016-09-28T05:41:13.432Z,59.90
2016-09-28T05:42:12.195Z,59.90
2016-09-28T05:43:12.184Z,59.90
2016-09-28T05:44:12.071Z,60.10
2016-09-28T05:45:12.454Z,59.70
2016-09-28T05:46:12.374Z,59.80
2016-09-28T05:47:11.494Z,59.60
2016-09-28T05:48:12.415Z,59.50
2016-09-28T05:49:09.582Z,is
2016-09-28T05:50:14.395Z,59.50
2016-09-28T05:51:12.206Z,59.50
2016-09-28T05:52:13.054Z,59.30
2016-09-28T05:53:12.574Z,59.30
2016-09-28T05:54:10.283Z,is
2016-09-28T05:55:12.272Z,59.10
2016-09-28T05:56:12.226Z,59.40
2016-09-28T05:57:12.238Z,59.30
2016-09-28T05:58:12.317Z,59.50
2016-09-28T05:59:13.010Z,59.50
2016-09-28T06:00:12.004Z,59.50
2016-09-28T06:01:10.598Z,is
2016-09-28T06:02:12.476Z,59.50
2016-09-28T06:03:13.097Z,59.30
2016-09-28T06:04:13.841Z,59.30
2016-09-28T06:05:12.450Z,59.40
2016-09-28T06:06:12.010Z,59.40
2016-09-28T06:07:13.013Z,59.40
2016-09-28T06:08:12.492Z,59.40
2016-09-28T06:09:12.229Z,59.50
2016-09-28T06:10:13.145Z,59.50
2016-09-28T06:11:12.649Z,59.40
2016-09-28T06:12:12.207Z,59.10
2016-09-28T06:13:12.840Z,59.50
2016-09-28T06:14:12.201Z,59.90
2016-09-28T06:15:13.130Z,59.80
2016-09-28T06:16:12.836Z,59.90
2016-09-28T06:17:11.942Z,59.90
2016-09-28T06:18:11.928Z,59.50
2016-09-28T06:19:13.312Z,59.50
2016-09-28T06:20:13.167Z,58.90
2016-09-28T06:21:12.191Z,59.00
2016-09-28T06:22:12.310Z,58.80
2016-09-28T06:23:12.842Z,58.80
2016-09-28T06:24:13.697Z,59.50
2016-09-28T06:25:11.676Z,58.80
2016-09-28T06:26:10.353Z,is
2016-09-28T06:27:12.630Z,57.60
2016-09-28T06:28:12.001Z,58.00
2016-09-28T06:29:12.100Z,57.20
2016-09-28T06:30:13.833Z,56.80
2016-09-28T06:31:12.420Z,51.90
2016-09-28T06:32:10.267Z,is
2016-09-28T06:33:11.753Z,51.70
2016-09-28T06:34:12.850Z,51.80
2016-09-28T06:35:11.795Z,52.70
2016-09-28T06:36:13.743Z,53.00
2016-09-28T06:37:12.301Z,53.00
2016-09-28T06:38:12.178Z,53.50
2016-09-28T06:39:12.622Z,54.00
2016-09-28T06:40:11.763Z,53.50
2016-09-28T06:41:11.961Z,54.20
2016-09-28T06:42:12.882Z,55.10
2016-09-28T06:43:10.691Z,is
2016-09-28T06:44:13.233Z,54.80
2016-09-28T06:45:12.660Z,55.40
2016-09-28T06:46:11.638Z,55.50
2016-09-28T06:47:11.681Z,55.70
2016-09-28T06:48:12.023Z,55.50
2016-09-28T06:49:11.986Z,55.40
2016-09-28T06:50:11.910Z,55.30
2016-09-28T06:51:12.083Z,54.70
2016-09-28T06:52:12.626Z,55.00
2016-09-28T06:53:12.342Z,54.60
2016-09-28T06:54:11.363Z,54.60
2016-09-28T06:55:11.710Z,54.40
2016-09-28T06:56:12.105Z,54.40
2016-09-28T06:57:13.091Z,54.60
2016-09-28T06:58:12.464Z,54.30
2016-09-28T06:59:11.705Z,54.40
2016-09-28T07:00:10.723Z,is
2016-09-28T07:01:13.757Z,54.40
2016-09-28T07:02:12.400Z,54.10
2016-09-28T07:03:12.033Z,54.20
2016-09-28T07:04:12.154Z,53.90
2016-09-28T07:05:13.236Z,54.00
2016-09-28T07:06:10.866Z,is
2016-09-28T07:07:13.150Z,53.70
2016-09-28T07:08:12.208Z,53.50
2016-09-28T07:09:12.611Z,53.70
2016-09-28T07:10:12.431Z,53.70
2016-09-28T07:11:11.858Z,53.60
2016-09-28T07:12:11.943Z,53.50
2016-09-28T07:13:12.529Z,53.60
2016-09-28T07:14:10.388Z,is
2016-09-28T07:15:11.623Z,53.50
2016-09-28T07:16:10.430Z,is
2016-09-28T07:17:13.200Z,53.40
2016-09-28T07:18:13.076Z,53.30
2016-09-28T07:19:12.482Z,53.40
2016-09-28T07:20:11.604Z,53.40
2016-09-28T07:21:11.666Z,53.40
2016-09-28T07:22:09.650Z,is
2016-09-28T07:23:10.717Z,is
2016-09-28T07:24:12.510Z,53.50
2016-09-28T07:25:11.608Z,53.40
2016-09-28T07:26:12.239Z,53.50
2016-09-28T07:27:12.372Z,53.50
2016-09-28T07:28:13.351Z,53.70
2016-09-28T07:29:10.821Z,is
2016-09-28T07:30:12.123Z,53.60
2016-09-28T07:31:12.878Z,53.70
2016-09-28T07:32:12.505Z,53.70
2016-09-28T07:33:11.579Z,53.70
2016-09-28T07:34:12.125Z,53.80
2016-09-28T07:35:12.611Z,53.90
2016-09-28T07:36:11.705Z,54.00
2016-09-28T07:37:10.239Z,is
2016-09-28T07:38:11.880Z,54.00
2016-09-28T07:39:12.243Z,54.00
2016-09-28T07:40:12.898Z,54.10
2016-09-28T07:41:12.059Z,54.00
2016-09-28T07:42:12.657Z,54.10
2016-09-28T07:43:11.710Z,54.00
2016-09-28T07:44:11.790Z,54.10
2016-09-28T07:45:11.684Z,54.20
2016-09-28T07:46:13.434Z,54.30
2016-09-28T07:47:11.370Z,54.30
2016-09-28T07:48:12.433Z,54.20
2016-09-28T07:49:12.273Z,54.40
2016-09-28T07:50:13.291Z,54.30
2016-09-28T07:51:12.962Z,54.40
2016-09-28T07:52:11.965Z,54.40
2016-09-28T07:53:12.579Z,54.40
2016-09-28T07:54:11.762Z,54.40
2016-09-28T07:55:12.233Z,54.50
2016-09-28T07:56:10.255Z,is
2016-09-28T07:57:11.588Z,54.50
2016-09-28T07:58:12.543Z,54.50
2016-09-28T07:59:11.613Z,54.40
2016-09-28T08:00:11.581Z,54.50
2016-09-28T08:01:15.964Z,is
2016-09-28T08:02:12.284Z,54.60
2016-09-28T08:03:12.646Z,54.60
2016-09-28T08:04:11.684Z,54.50
2016-09-28T08:05:12.513Z,54.70
2016-09-28T08:06:11.655Z,54.60
2016-09-28T08:07:11.674Z,54.70
2016-09-28T08:08:12.227Z,54.80
2016-09-28T08:09:15.884Z,54.60
2016-09-28T08:10:12.102Z,54.80
2016-09-28T08:11:12.439Z,54.80
2016-09-28T08:12:12.315Z,54.90
2016-09-28T08:13:11.753Z,54.90
2016-09-28T08:14:09.037Z,is
2016-09-28T08:15:12.322Z,54.90
2016-09-28T08:16:14.305Z,55.00
2016-09-28T08:17:12.909Z,54.80
2016-09-28T08:18:12.545Z,54.90
2016-09-28T08:19:12.211Z,55.00
2016-09-28T08:20:12.272Z,54.90
2016-09-28T08:21:12.844Z,55.00
2016-09-28T08:22:12.268Z,54.90
2016-09-28T08:23:11.650Z,54.90
2016-09-28T08:24:11.544Z,54.90
2016-09-28T08:25:13.192Z,55.00
2016-09-28T08:26:12.843Z,55.00
2016-09-28T08:27:13.051Z,55.00
2016-09-28T08:28:12.073Z,55.10
2016-09-28T08:29:12.702Z,55.00
2016-09-28T08:30:13.479Z,55.10
2016-09-28T08:31:13.028Z,55.10
2016-09-28T08:32:13.640Z,55.00
2016-09-28T08:33:12.046Z,55.00
2016-09-28T08:34:13.593Z,55.10
2016-09-28T08:35:11.995Z,55.00
2016-09-28T08:36:12.439Z,55.10
2016-09-28T08:37:11.794Z,55.10
2016-09-28T08:38:13.829Z,55.40
2016-09-28T08:39:12.763Z,55.20
2016-09-28T08:40:13.261Z,55.40
2016-09-28T08:41:12.223Z,55.20
2016-09-28T08:42:12.335Z,55.20
2016-09-28T08:43:12.281Z,55.20
2016-09-28T08:44:13.030Z,55.30
2016-09-28T08:45:12.549Z,55.30
2016-09-28T08:46:11.633Z,55.30
2016-09-28T08:47:11.578Z,55.20
2016-09-28T08:48:12.816Z,55.40
2016-09-28T08:49:09.203Z,is
2016-09-28T08:50:12.161Z,55.40
2016-09-28T08:51:12.241Z,55.30
2016-09-28T08:52:12.845Z,55.60
2016-09-28T08:53:12.472Z,55.50
2016-09-28T08:54:11.364Z,55.30
2016-09-28T08:55:11.326Z,55.40
2016-09-28T08:56:12.742Z,55.40
2016-09-28T08:57:10.268Z,is
2016-09-28T08:58:11.677Z,55.50
2016-09-28T08:59:12.340Z,55.50
2016-09-28T09:00:14.236Z,55.50
2016-09-28T09:01:12.121Z,55.50
2016-09-28T09:02:13.614Z,55.50
2016-09-28T09:03:11.478Z,55.50
2016-09-28T09:04:13.425Z,55.50
2016-09-28T09:05:11.968Z,55.50
2016-09-28T09:06:12.602Z,55.60
2016-09-28T09:07:11.630Z,55.50
2016-09-28T09:08:11.601Z,55.50
2016-09-28T09:09:13.463Z,55.60
2016-09-28T09:10:11.511Z,55.60
2016-09-28T09:11:15.771Z,is
2016-09-28T09:12:10.475Z,is
2016-09-28T09:13:11.828Z,55.50
2016-09-28T09:14:11.882Z,55.50
2016-09-28T09:15:12.562Z,55.70
2016-09-28T09:16:11.629Z,55.60
2016-09-28T09:17:10.148Z,is
2016-09-28T09:18:11.561Z,55.60
2016-09-28T09:19:12.387Z,55.70
2016-09-28T09:20:12.200Z,55.70
2016-09-28T09:21:13.008Z,55.70
2016-09-28T09:22:12.615Z,55.70
2016-09-28T09:23:12.201Z,55.60
2016-09-28T09:24:12.836Z,55.60
2016-09-28T09:25:12.587Z,55.70
2016-09-28T09:26:11.631Z,55.60
2016-09-28T09:27:13.397Z,55.80
2016-09-28T09:28:12.176Z,55.70
2016-09-28T09:29:12.575Z,55.70
2016-09-28T09:30:12.455Z,55.70
2016-09-28T09:31:11.481Z,55.60
2016-09-28T09:32:12.038Z,55.80
2016-09-28T09:33:12.633Z,55.80
2016-09-28T09:34:12.255Z,55.80
2016-09-28T09:35:12.189Z,55.80
2016-09-28T09:36:12.290Z,55.70
2016-09-28T09:37:12.081Z,55.80
2016-09-28T09:38:12.712Z,55.80
2016-09-28T09:39:12.208Z,55.90
2016-09-28T09:40:12.209Z,55.80
2016-09-28T09:41:12.508Z,55.90
2016-09-28T09:42:12.092Z,55.80
2016-09-28T09:43:13.355Z,55.80
2016-09-28T09:44:12.933Z,55.90
2016-09-28T09:45:13.042Z,55.80
2016-09-28T09:46:12.073Z,55.80
2016-09-28T09:47:15.044Z,55.80
2016-09-28T09:48:11.931Z,55.80
2016-09-28T09:49:11.938Z,55.80
2016-09-28T09:50:11.817Z,55.80
2016-09-28T09:51:12.540Z,55.90
2016-09-28T09:52:11.769Z,55.80
2016-09-28T09:53:13.924Z,56.00
2016-09-28T09:54:10.736Z,is
2016-09-28T09:55:12.556Z,55.90
2016-09-28T09:56:10.463Z,is
2016-09-28T09:57:09.592Z,is
2016-09-28T09:58:11.955Z,55.90
2016-09-28T09:59:12.097Z,55.80
2016-09-28T10:00:13.786Z,55.30
2016-09-28T10:01:11.732Z,55.90
2016-09-28T10:02:11.802Z,55.80
2016-09-28T10:03:12.335Z,55.80
2016-09-28T10:04:13.108Z,55.90
2016-09-28T10:05:12.076Z,55.90
2016-09-28T10:06:14.765Z,55.90
2016-09-28T10:07:12.488Z,55.90
2016-09-28T10:08:11.489Z,55.80
2016-09-28T10:09:11.557Z,55.80
2016-09-28T10:10:11.474Z,55.80
2016-09-28T10:11:11.457Z,55.80
2016-09-28T10:12:11.494Z,55.80
2016-09-28T10:13:12.031Z,55.80
2016-09-28T10:14:10.979Z,is
2016-09-28T10:15:12.230Z,55.80
2016-09-28T10:16:12.135Z,55.90
2016-09-28T10:17:12.753Z,55.90
2016-09-28T10:18:12.368Z,55.90
2016-09-28T10:19:11.320Z,55.80
2016-09-28T10:20:11.371Z,55.80
2016-09-28T10:21:12.842Z,56.10
2016-09-28T10:22:12.541Z,56.00
2016-09-28T10:23:11.656Z,55.90
2016-09-28T10:24:11.736Z,55.90
2016-09-28T10:25:09.798Z,is
2016-09-28T10:26:11.864Z,56.00
2016-09-28T10:27:11.935Z,55.90
2016-09-28T10:28:13.531Z,56.00
2016-09-28T10:29:11.525Z,55.90
2016-09-28T10:30:12.238Z,56.00
2016-09-28T10:31:12.087Z,55.90
2016-09-28T10:32:12.520Z,55.80
2016-09-28T10:33:09.507Z,is
2016-09-28T10:34:11.799Z,55.80
2016-09-28T10:35:12.013Z,55.90
2016-09-28T10:36:12.865Z,55.80
2016-09-28T10:37:10.642Z,is
2016-09-28T10:38:12.424Z,55.90
2016-09-28T10:39:11.575Z,55.90
2016-09-28T10:40:12.325Z,56.00
2016-09-28T10:41:13.010Z,56.10
2016-09-28T10:42:12.573Z,56.00
2016-09-28T10:43:11.640Z,55.90
2016-09-28T10:44:12.019Z,55.90
2016-09-28T10:45:12.153Z,55.90
2016-09-28T10:46:12.468Z,56.00
2016-09-28T10:47:13.081Z,55.90
2016-09-28T10:48:13.817Z,56.00
2016-09-28T10:49:11.862Z,55.90
2016-09-28T10:50:13.532Z,56.00
2016-09-28T10:51:11.406Z,56.00
2016-09-28T10:52:12.216Z,56.00
2016-09-28T10:53:11.433Z,55.90
2016-09-28T10:54:12.083Z,56.20
2016-09-28T10:55:12.438Z,56.00
2016-09-28T10:56:12.057Z,56.00
2016-09-28T10:57:12.165Z,56.00
2016-09-28T10:58:12.822Z,56.00
2016-09-28T10:59:11.956Z,55.90
2016-09-28T11:00:11.877Z,56.00
2016-09-28T11:01:12.566Z,56.00
2016-09-28T11:02:12.046Z,56.00
2016-09-28T11:03:12.143Z,56.00
2016-09-28T11:04:12.105Z,56.00
2016-09-28T11:05:12.091Z,56.00
2016-09-28T11:06:10.085Z,is
2016-09-28T11:07:13.045Z,56.00
2016-09-28T11:08:09.607Z,is
2016-09-28T11:09:11.842Z,56.00
2016-09-28T11:10:11.865Z,56.00
2016-09-28T11:11:12.429Z,56.00
2016-09-28T11:12:11.377Z,56.00
2016-09-28T11:13:12.349Z,56.00
2016-09-28T11:14:12.163Z,56.00
2016-09-28T11:15:12.615Z,56.00
2016-09-28T11:16:09.678Z,is
2016-09-28T11:17:11.959Z,56.00
2016-09-28T11:18:10.738Z,is
2016-09-28T11:19:11.951Z,56.00
2016-09-28T11:20:11.988Z,56.00
2016-09-28T11:21:11.924Z,56.00
2016-09-28T11:22:12.088Z,56.00
2016-09-28T11:23:12.001Z,56.00
2016-09-28T11:24:13.948Z,56.00
2016-09-28T11:25:12.469Z,56.00
2016-09-28T11:26:13.237Z,56.00
2016-09-28T11:27:12.424Z,56.00
2016-09-28T11:28:12.209Z,56.00
2016-09-28T11:29:17.702Z,56.00
2016-09-28T11:30:11.859Z,56.00
2016-09-28T11:31:11.853Z,56.00
2016-09-28T11:32:13.677Z,56.00
2016-09-28T11:33:11.561Z,56.00
2016-09-28T11:34:11.679Z,56.00
2016-09-28T11:35:12.197Z,56.00
2016-09-28T11:36:12.636Z,56.10
2016-09-28T11:37:11.763Z,56.00
2016-09-28T11:38:13.732Z,56.10
2016-09-28T11:39:12.587Z,56.10
2016-09-28T11:40:12.283Z,56.10
2016-09-28T11:41:12.207Z,56.00
2016-09-28T11:42:12.305Z,56.00
2016-09-28T11:43:12.411Z,56.00
2016-09-28T11:44:12.434Z,56.10
2016-09-28T11:45:11.374Z,56.00
2016-09-28T11:46:13.178Z,56.10
2016-09-28T11:47:12.158Z,56.00
2016-09-28T11:48:12.880Z,56.10
2016-09-28T11:49:12.365Z,56.10
2016-09-28T11:50:11.556Z,56.20
2016-09-28T11:51:12.378Z,56.00
2016-09-28T11:52:12.018Z,56.00
2016-09-28T11:53:12.088Z,56.00
2016-09-28T11:54:12.836Z,56.10
2016-09-28T11:55:11.775Z,56.00
2016-09-28T11:56:12.250Z,56.10
2016-09-28T11:57:12.122Z,56.00
2016-09-28T11:58:12.147Z,56.00
2016-09-28T11:59:12.842Z,56.10
2016-09-28T12:00:13.655Z,56.10
2016-09-28T12:01:12.098Z,56.00
2016-09-28T12:02:12.043Z,56.00
2016-09-28T12:03:12.088Z,56.10
2016-09-28T12:04:12.202Z,56.10
2016-09-28T12:05:12.963Z,56.20
2016-09-28T12:06:10.772Z,is
2016-09-28T12:07:12.453Z,56.10
2016-09-28T12:08:11.889Z,56.00
2016-09-28T12:09:11.823Z,56.10
2016-09-28T12:10:11.995Z,56.00
2016-09-28T12:11:13.965Z,56.10
2016-09-28T12:12:12.495Z,56.00
2016-09-28T12:13:08.738Z,is
2016-09-28T12:14:14.778Z,56.00
2016-09-28T12:15:12.295Z,56.10
2016-09-28T12:16:12.228Z,56.00
2016-09-28T12:17:12.600Z,56.00
2016-09-28T12:18:12.135Z,56.00
2016-09-28T12:19:12.028Z,56.00
2016-09-28T12:20:12.034Z,56.00
2016-09-28T12:21:12.727Z,56.00
2016-09-28T12:22:12.497Z,56.10
2016-09-28T12:23:12.853Z,56.00
2016-09-28T12:24:12.497Z,56.20
2016-09-28T12:25:12.889Z,56.10
2016-09-28T12:26:12.176Z,56.00
2016-09-28T12:27:13.812Z,56.20
2016-09-28T12:28:12.627Z,56.20
2016-09-28T12:29:11.633Z,56.10
2016-09-28T12:30:11.631Z,56.10
2016-09-28T12:31:13.247Z,56.20
2016-09-28T12:32:13.018Z,56.20
2016-09-28T12:33:09.326Z,is
2016-09-28T12:34:10.602Z,is
2016-09-28T12:35:11.770Z,56.10
2016-09-28T12:36:12.314Z,56.00
2016-09-28T12:37:13.045Z,56.20
2016-09-28T12:38:11.953Z,56.20
2016-09-28T12:39:12.643Z,56.20
2016-09-28T12:40:12.173Z,56.20
2016-09-28T12:41:13.991Z,56.20
2016-09-28T12:42:12.722Z,56.20
2016-09-28T12:43:10.589Z,is
2016-09-28T12:44:12.455Z,56.20
2016-09-28T12:45:12.132Z,56.20
2016-09-28T12:46:12.155Z,56.10
2016-09-28T12:47:12.169Z,56.10
2016-09-28T12:48:12.841Z,56.30
2016-09-28T12:49:12.108Z,56.10
2016-09-28T12:50:12.610Z,56.30
2016-09-28T12:51:11.666Z,56.20
2016-09-28T12:52:11.661Z,56.10
2016-09-28T12:53:12.427Z,56.20
2016-09-28T12:54:13.027Z,56.20
2016-09-28T12:55:12.610Z,56.30
2016-09-28T12:56:11.638Z,56.20
2016-09-28T12:57:12.465Z,56.40
2016-09-28T12:58:12.072Z,56.10
2016-09-28T12:59:12.840Z,56.40